sensor_id;sensor_type;location;lat;lon;timestamp;pressure;altitude;pressure_sealevel;temperature;humidity
17855;BME280;9053;53.358;6.382;2023-05-19T00:00:12;102891.22;;;10.86;100.00
17855;BME280;9053;53.358;6.382;2023-05-19T00:02:50;102890.81;;;10.79;100.00
17855;BME280;9053;53.358;6.382;2023-05-19T00:05:22;102892.63;;;10.80;100.00
17855;BME280;9053;53.358;6.382;2023-05-19T00:08:01;102894.16;;;10.77;100.00
17855;BME280;9053;53.358;6.382;2023-05-19T00:10:33;102894.06;;;10.75;100.00
17855;BME280;9053;53.358;6.382;2023-05-19T00:13:08;102882.63;;;10.75;100.00
17855;BME280;9053;53.358;6.382;2023-05-19T00:15:40;102889.59;;;10.74;100.00
17855;BME280;9053;53.358;6.382;2023-05-19T00:18:17;102883.31;;;10.72;100.00
17855;BME280;9053;53.358;6.382;2023-05-19T00:20:58;102881.72;;;10.74;100.00
17855;BME280;9053;53.358;6.382;2023-05-19T00:23:51;102880.09;;;10.76;100.00
17855;BME280;9053;53.358;6.382;2023-05-19T00:26:27;102881.91;;;10.77;100.00
17855;BME280;9053;53.358;6.382;2023-05-19T00:28:58;102877.47;;;10.76;100.00
17855;BME280;9053;53.358;6.382;2023-05-19T00:31:37;102880.28;;;10.79;100.00
17855;BME280;9053;53.358;6.382;2023-05-19T00:34:21;102873.63;;;10.71;100.00
17855;BME280;9053;53.358;6.382;2023-05-19T00:37:07;102874.34;;;10.69;100.00
17855;BME280;9053;53.358;6.382;2023-05-19T00:39:37;102876.03;;;10.68;100.00
17855;BME280;9053;53.358;6.382;2023-05-19T00:42:07;102871.41;;;10.64;100.00
17855;BME280;9053;53.358;6.382;2023-05-19T00:44:45;102869.47;;;10.61;100.00
17855;BME280;9053;53.358;6.382;2023-05-19T00:47:17;102864.91;;;10.59;100.00
17855;BME280;9053;53.358;6.382;2023-05-19T00:49:52;102866.66;;;10.58;100.00
17855;BME280;9053;53.358;6.382;2023-05-19T00:52:22;102861.47;;;10.60;100.00
17855;BME280;9053;53.358;6.382;2023-05-19T00:55:06;102863.31;;;10.61;100.00
17855;BME280;9053;53.358;6.382;2023-05-19T01:00:20;102861.06;;;10.67;100.00
17855;BME280;9053;53.358;6.382;2023-05-19T01:02:54;102859.13;;;10.65;100.00
17855;BME280;9053;53.358;6.382;2023-05-19T01:05:31;102859.13;;;10.65;100.00
17855;BME280;9053;53.358;6.382;2023-05-19T01:08:07;102858.31;;;10.66;100.00
17855;BME280;9053;53.358;6.382;2023-05-19T01:10:44;102861.97;;;10.68;100.00
17855;BME280;9053;53.358;6.382;2023-05-19T01:13:16;102858.44;;;10.67;100.00
17855;BME280;9053;53.358;6.382;2023-05-19T01:15:57;102861.97;;;10.68;100.00
17855;BME280;9053;53.358;6.382;2023-05-19T01:18:43;102858.44;;;10.67;100.00
17855;BME280;9053;53.358;6.382;2023-05-19T01:21:29;102854.91;;;10.67;100.00
17855;BME280;9053;53.358;6.382;2023-05-19T01:24:17;102849.50;;;10.65;100.00
17855;BME280;9053;53.358;6.382;2023-05-19T01:27:15;102851.13;;;10.63;100.00
17855;BME280;9053;53.358;6.382;2023-05-19T02:20:57;102821.91;;;10.58;100.00
17855;BME280;9053;53.358;6.382;2023-05-19T02:23:27;102822.63;;;10.56;100.00
17855;BME280;9053;53.358;6.382;2023-05-19T02:25:57;102810.25;;;10.55;100.00
17855;BME280;9053;53.358;6.382;2023-05-19T02:28:27;102818.47;;;10.59;100.00
17855;BME280;9053;53.358;6.382;2023-05-19T02:30:57;102810.56;;;10.59;100.00
17855;BME280;9053;53.358;6.382;2023-05-19T02:33:27;102810.69;;;10.61;100.00
17855;BME280;9053;53.358;6.382;2023-05-19T02:36:04;102801.84;;;10.60;100.00
17855;BME280;9053;53.358;6.382;2023-05-19T02:38:34;102813.50;;;10.64;100.00
17855;BME280;9053;53.358;6.382;2023-05-19T02:41:04;102813.50;;;10.64;100.00
17855;BME280;9053;53.358;6.382;2023-05-19T02:43:34;102800.16;;;10.61;100.00
17855;BME280;9053;53.358;6.382;2023-05-19T02:46:04;102799.44;;;10.64;100.00
17855;BME280;9053;53.358;6.382;2023-05-19T02:48:34;102805.41;;;10.61;100.00
17855;BME280;9053;53.358;6.382;2023-05-19T02:51:07;102812.09;;;10.56;100.00
17855;BME280;9053;53.358;6.382;2023-05-19T02:53:37;102804.22;;;10.56;100.00
17855;BME280;9053;53.358;6.382;2023-05-19T02:56:06;102807.56;;;10.53;100.00
17855;BME280;9053;53.358;6.382;2023-05-19T02:58:36;102811.09;;;10.54;100.00
17855;BME280;9053;53.358;6.382;2023-05-19T03:01:09;102810.06;;;10.52;100.00
17855;BME280;9053;53.358;6.382;2023-05-19T03:03:38;102800.13;;;10.48;100.00
17855;BME280;9053;53.358;6.382;2023-05-19T03:06:11;102807.84;;;10.45;100.00
17855;BME280;9053;53.358;6.382;2023-05-19T03:08:43;102803.16;;;10.40;100.00
17855;BME280;9053;53.358;6.382;2023-05-19T03:11:13;102801.38;;;10.39;100.00
17855;BME280;9053;53.358;6.382;2023-05-19T03:13:44;102810.88;;;10.37;100.00
17855;BME280;9053;53.358;6.382;2023-05-19T03:16:13;102807.22;;;10.35;100.00
17855;BME280;9053;53.358;6.382;2023-05-19T03:18:43;102800.16;;;10.34;100.00
17855;BME280;9053;53.358;6.382;2023-05-19T03:21:19;102798.34;;;10.33;100.00
17855;BME280;9053;53.358;6.382;2023-05-19T03:23:49;102794.78;;;10.33;100.00
17855;BME280;9053;53.358;6.382;2023-05-19T03:26:19;102795.72;;;10.33;100.00
17855;BME280;9053;53.358;6.382;2023-05-19T03:28:49;102788.72;;;10.34;100.00
17855;BME280;9053;53.358;6.382;2023-05-19T03:31:19;102790.34;;;10.32;100.00
17855;BME280;9053;53.358;6.382;2023-05-19T03:33:49;102782.44;;;10.32;100.00
17855;BME280;9053;53.358;6.382;2023-05-19T03:36:22;102788.53;;;10.31;100.00
17855;BME280;9053;53.358;6.382;2023-05-19T03:38:57;102789.44;;;10.31;100.00
17855;BME280;9053;53.358;6.382;2023-05-19T03:41:29;102792.25;;;10.34;100.00
17855;BME280;9053;53.358;6.382;2023-05-19T03:44:06;102795.91;;;10.36;100.00
17855;BME280;9053;53.358;6.382;2023-05-19T03:46:40;102796.94;;;10.38;100.00
17855;BME280;9053;53.358;6.382;2023-05-19T03:55:17;102806.22;;;10.47;100.00
17855;BME280;9053;53.358;6.382;2023-05-19T03:57:52;102795.69;;;10.47;100.00
17855;BME280;9053;53.358;6.382;2023-05-19T04:00:24;102802.06;;;10.50;100.00
17855;BME280;9053;53.358;6.382;2023-05-19T04:03:00;102801.34;;;10.53;100.00
17855;BME280;9053;53.358;6.382;2023-05-19T04:05:30;102797.28;;;10.58;100.00
17855;BME280;9053;53.358;6.382;2023-05-19T04:08:02;102807.22;;;10.62;100.00
17855;BME280;9053;53.358;6.382;2023-05-19T04:10:37;102810.03;;;10.65;100.00
17855;BME280;9053;53.358;6.382;2023-05-19T04:13:11;102812.16;;;10.71;100.00
17855;BME280;9053;53.358;6.382;2023-05-19T04:15:43;102808.00;;;10.74;100.00
17855;BME280;9053;53.358;6.382;2023-05-19T04:18:19;102808.50;;;10.82;100.00
17855;BME280;9053;53.358;6.382;2023-05-19T04:20:56;102815.16;;;10.90;100.00
17855;BME280;9053;53.358;6.382;2023-05-19T04:23:28;102812.00;;;10.96;100.00
17855;BME280;9053;53.358;6.382;2023-05-19T04:26:02;102815.84;;;11.01;100.00
17855;BME280;9053;53.358;6.382;2023-05-19T04:28:33;102820.50;;;11.05;100.00
17855;BME280;9053;53.358;6.382;2023-05-19T04:31:10;102812.00;;;11.09;100.00
17855;BME280;9053;53.358;6.382;2023-05-19T04:33:43;102818.53;;;11.16;100.00
17855;BME280;9053;53.358;6.382;2023-05-19T04:36:13;102814.38;;;11.19;100.00
17855;BME280;9053;53.358;6.382;2023-05-19T04:38:47;102812.97;;;11.24;100.00
17855;BME280;9053;53.358;6.382;2023-05-19T04:41:23;102813.91;;;11.40;100.00
17855;BME280;9053;53.358;6.382;2023-05-19T04:43:55;102800.41;;;11.63;100.00
17855;BME280;9053;53.358;6.382;2023-05-19T04:46:37;102806.81;;;11.97;100.00
17855;BME280;9053;53.358;6.382;2023-05-19T04:49:10;102800.72;;;12.27;100.00
17855;BME280;9053;53.358;6.382;2023-05-19T04:51:42;102800.66;;;12.57;100.00
17855;BME280;9053;53.358;6.382;2023-05-19T04:54:26;102807.69;;;12.88;100.00
17855;BME280;9053;53.358;6.382;2023-05-19T04:56:58;102807.94;;;13.09;100.00
17855;BME280;9053;53.358;6.382;2023-05-19T04:59:30;102807.31;;;13.29;100.00
17855;BME280;9053;53.358;6.382;2023-05-19T05:02:00;102797.91;;;13.51;100.00
17855;BME280;9053;53.358;6.382;2023-05-19T05:04:30;102800.16;;;13.77;100.00
17855;BME280;9053;53.358;6.382;2023-05-19T05:07:04;102801.59;;;14.05;100.00
17855;BME280;9053;53.358;6.382;2023-05-19T05:09:36;102805.34;;;14.26;100.00
17855;BME280;9053;53.358;6.382;2023-05-19T05:12:17;102804.56;;;14.47;100.00
17855;BME280;9053;53.358;6.382;2023-05-19T05:14:52;102812.91;;;14.73;100.00
17855;BME280;9053;53.358;6.382;2023-05-19T05:17:26;102812.09;;;14.93;100.00
17855;BME280;9053;53.358;6.382;2023-05-19T05:20:09;102815.78;;;15.14;100.00
17855;BME280;9053;53.358;6.382;2023-05-19T05:22:44;102823.50;;;15.29;100.00
17855;BME280;9053;53.358;6.382;2023-05-19T05:25:20;102815.16;;;15.40;99.31
17855;BME280;9053;53.358;6.382;2023-05-19T05:28:01;102813.88;;;15.51;98.05
17855;BME280;9053;53.358;6.382;2023-05-19T05:30:32;102814.22;;;15.58;96.71
17855;BME280;9053;53.358;6.382;2023-05-19T05:33:07;102811.59;;;15.58;95.84
17855;BME280;9053;53.358;6.382;2023-05-19T05:35:41;102816.03;;;15.59;94.88
17855;BME280;9053;53.358;6.382;2023-05-19T05:38:13;102815.63;;;15.70;94.33
17855;BME280;9053;53.358;6.382;2023-05-19T05:40:47;102821.56;;;15.84;93.62
17855;BME280;9053;53.358;6.382;2023-05-19T05:43:27;102817.38;;;15.89;93.16
17855;BME280;9053;53.358;6.382;2023-05-19T05:46:02;102820.22;;;15.93;92.22
17855;BME280;9053;53.358;6.382;2023-05-19T05:48:36;102809.31;;;15.87;91.48
17855;BME280;9053;53.358;6.382;2023-05-19T05:51:08;102810.44;;;15.92;91.00
17855;BME280;9053;53.358;6.382;2023-05-19T05:53:49;102816.03;;;15.98;90.37
17855;BME280;9053;53.358;6.382;2023-05-19T05:56:23;102812.84;;;16.07;90.08
17855;BME280;9053;53.358;6.382;2023-05-19T05:59:08;102802.63;;;16.16;89.58
17855;BME280;9053;53.358;6.382;2023-05-19T06:01:44;102806.69;;;16.29;89.27
17855;BME280;9053;53.358;6.382;2023-05-19T06:04:19;102814.38;;;16.44;88.70
17855;BME280;9053;53.358;6.382;2023-05-19T06:06:49;102807.75;;;16.55;87.91
17855;BME280;9053;53.358;6.382;2023-05-19T06:09:25;102816.75;;;16.59;87.36
17855;BME280;9053;53.358;6.382;2023-05-19T06:11:58;102818.84;;;16.66;86.85
17855;BME280;9053;53.358;6.382;2023-05-19T06:14:33;102821.91;;;16.77;86.59
17855;BME280;9053;53.358;6.382;2023-05-19T06:17:06;102823.59;;;16.75;85.80
17855;BME280;9053;53.358;6.382;2023-05-19T06:19:38;102820.03;;;16.74;84.98
17855;BME280;9053;53.358;6.382;2023-05-19T06:22:10;102820.94;;;16.75;84.36
17855;BME280;9053;53.358;6.382;2023-05-19T06:24:45;102821.22;;;16.81;84.08
17855;BME280;9053;53.358;6.382;2023-05-19T06:27:15;102821.75;;;16.95;83.91
17855;BME280;9053;53.358;6.382;2023-05-19T06:29:51;102828.34;;;17.04;83.39
17855;BME280;9053;53.358;6.382;2023-05-19T06:32:21;102819.69;;;17.10;82.96
17855;BME280;9053;53.358;6.382;2023-05-19T06:34:51;102823.50;;;17.17;81.99
17855;BME280;9053;53.358;6.382;2023-05-19T06:37:26;102821.25;;;17.27;81.65
17855;BME280;9053;53.358;6.382;2023-05-19T06:39:59;102825.34;;;17.42;80.91
17855;BME280;9053;53.358;6.382;2023-05-19T06:42:30;102816.31;;;17.62;80.81
17855;BME280;9053;53.358;6.382;2023-05-19T06:45:03;102825.00;;;17.81;80.35
17855;BME280;9053;53.358;6.382;2023-05-19T06:47:40;102823.75;;;17.97;79.85
17855;BME280;9053;53.358;6.382;2023-05-19T06:50:11;102820.31;;;17.99;78.23
17855;BME280;9053;53.358;6.382;2023-05-19T06:52:41;102821.34;;;18.03;77.34
17855;BME280;9053;53.358;6.382;2023-05-19T06:55:12;102832.06;;;18.04;77.10
17855;BME280;9053;53.358;6.382;2023-05-19T06:57:42;102828.63;;;18.08;76.85
17855;BME280;9053;53.358;6.382;2023-05-19T07:00:17;102829.53;;;18.09;76.14
17855;BME280;9053;53.358;6.382;2023-05-19T07:02:56;102832.31;;;18.12;75.48
17855;BME280;9053;53.358;6.382;2023-05-19T07:05:26;102829.59;;;18.10;75.54
17855;BME280;9053;53.358;6.382;2023-05-19T07:07:56;102828.84;;;18.14;75.42
17855;BME280;9053;53.358;6.382;2023-05-19T07:10:39;102826.81;;;18.07;74.41
17855;BME280;9053;53.358;6.382;2023-05-19T07:13:08;102823.28;;;18.08;73.98
17855;BME280;9053;53.358;6.382;2023-05-19T07:15:41;102834.19;;;18.14;74.14
17855;BME280;9053;53.358;6.382;2023-05-19T07:18:11;102839.59;;;18.17;73.92
17855;BME280;9053;53.358;6.382;2023-05-19T07:20:41;102840.69;;;18.24;73.94
17855;BME280;9053;53.358;6.382;2023-05-19T07:23:11;102840.22;;;18.36;74.02
17855;BME280;9053;53.358;6.382;2023-05-19T07:25:43;102836.72;;;18.37;74.01
17855;BME280;9053;53.358;6.382;2023-05-19T07:28:12;102837.00;;;18.46;73.34
17855;BME280;9053;53.358;6.382;2023-05-19T07:30:45;102832.06;;;18.58;72.75
17855;BME280;9053;53.358;6.382;2023-05-19T07:33:15;102835.03;;;18.68;72.22
17855;BME280;9053;53.358;6.382;2023-05-19T07:35:45;102827.06;;;18.68;71.52
17855;BME280;9053;53.358;6.382;2023-05-19T07:38:15;102830.69;;;18.70;70.79
17855;BME280;9053;53.358;6.382;2023-05-19T07:40:45;102827.41;;;18.78;70.22
17855;BME280;9053;53.358;6.382;2023-05-19T07:43:15;102827.84;;;18.92;70.00
17855;BME280;9053;53.358;6.382;2023-05-19T07:45:48;102827.03;;;18.95;68.77
17855;BME280;9053;53.358;6.382;2023-05-19T07:48:19;102832.25;;;18.92;68.48
17855;BME280;9053;53.358;6.382;2023-05-19T07:50:56;102817.72;;;18.80;67.79
17855;BME280;9053;53.358;6.382;2023-05-19T07:53:29;102828.41;;;18.82;67.58
17855;BME280;9053;53.358;6.382;2023-05-19T07:55:58;102817.56;;;18.76;67.67
17855;BME280;9053;53.358;6.382;2023-05-19T07:58:29;102822.16;;;18.80;67.60
17855;BME280;9053;53.358;6.382;2023-05-19T08:01:01;102814.38;;;18.88;67.90
17855;BME280;9053;53.358;6.382;2023-05-19T08:03:31;102815.66;;;19.00;67.51
17855;BME280;9053;53.358;6.382;2023-05-19T08:06:02;102810.47;;;19.05;67.43
17855;BME280;9053;53.358;6.382;2023-05-19T08:08:32;102812.41;;;19.11;66.98
17855;BME280;9053;53.358;6.382;2023-05-19T08:11:02;102823.09;;;19.11;66.25
17855;BME280;9053;53.358;6.382;2023-05-19T08:13:33;102817.47;;;19.01;65.72
17855;BME280;9053;53.358;6.382;2023-05-19T08:16:07;102811.00;;;18.93;65.43
17855;BME280;9053;53.358;6.382;2023-05-19T08:18:37;102810.22;;;18.97;65.29
17855;BME280;9053;53.358;6.382;2023-05-19T08:21:07;102821.16;;;19.05;65.51
17855;BME280;9053;53.358;6.382;2023-05-19T08:23:37;102807.09;;;19.11;65.34
17855;BME280;9053;53.358;6.382;2023-05-19T08:26:07;102805.53;;;19.19;65.63
17855;BME280;9053;53.358;6.382;2023-05-19T08:28:37;102808.06;;;19.14;65.34
17855;BME280;9053;53.358;6.382;2023-05-19T08:31:09;102807.09;;;19.12;65.54
17855;BME280;9053;53.358;6.382;2023-05-19T08:33:39;102805.94;;;19.02;64.93
17855;BME280;9053;53.358;6.382;2023-05-19T08:36:09;102809.28;;;18.95;65.29
17855;BME280;9053;53.358;6.382;2023-05-19T08:38:40;102801.44;;;18.73;64.94
17855;BME280;9053;53.358;6.382;2023-05-19T08:41:10;102793.66;;;18.79;65.07
17855;BME280;9053;53.358;6.382;2023-05-19T08:43:41;102789.13;;;18.76;64.48
17855;BME280;9053;53.358;6.382;2023-05-19T08:46:15;102794.47;;;18.76;64.79
17855;BME280;9053;53.358;6.382;2023-05-19T08:48:46;102788.84;;;18.67;64.30
17855;BME280;9053;53.358;6.382;2023-05-19T08:51:28;102786.78;;;18.58;64.15
17855;BME280;9053;53.358;6.382;2023-05-19T08:54:11;102780.22;;;18.47;63.93
17855;BME280;9053;53.358;6.382;2023-05-19T08:56:42;102778.38;;;18.46;64.65
17855;BME280;9053;53.358;6.382;2023-05-19T08:59:13;102771.97;;;18.40;64.74
17855;BME280;9053;53.358;6.382;2023-05-19T09:01:47;102772.81;;;18.38;64.95
17855;BME280;9053;53.358;6.382;2023-05-19T09:04:20;102766.03;;;18.48;65.62
17855;BME280;9053;53.358;6.382;2023-05-19T09:06:50;102767.81;;;18.49;65.48
17855;BME280;9053;53.358;6.382;2023-05-19T09:09:20;102763.53;;;18.54;65.92
17855;BME280;9053;53.358;6.382;2023-05-19T09:11:49;102766.75;;;18.44;65.74
17855;BME280;9053;53.358;6.382;2023-05-19T09:14:19;102761.47;;;18.17;64.72
17855;BME280;9053;53.358;6.382;2023-05-19T09:16:52;102758.69;;;18.14;63.91
17855;BME280;9053;53.358;6.382;2023-05-19T09:19:27;102761.25;;;18.11;62.94
17855;BME280;9053;53.358;6.382;2023-05-19T09:21:58;102761.22;;;18.09;62.53
17855;BME280;9053;53.358;6.382;2023-05-19T09:24:30;102760.28;;;17.82;62.24
17855;BME280;9053;53.358;6.382;2023-05-19T09:27:01;102752.50;;;17.88;62.79
17855;BME280;9053;53.358;6.382;2023-05-19T09:29:30;102749.94;;;17.91;63.80
17855;BME280;9053;53.358;6.382;2023-05-19T09:32:04;102751.53;;;17.86;64.35
17855;BME280;9053;53.358;6.382;2023-05-19T09:34:39;102755.78;;;17.81;64.82
17855;BME280;9053;53.358;6.382;2023-05-19T09:37:11;102755.28;;;17.67;64.85
17855;BME280;9053;53.358;6.382;2023-05-19T09:39:43;102760.06;;;17.51;65.24
17855;BME280;9053;53.358;6.382;2023-05-19T09:42:23;102755.75;;;17.55;65.71
17855;BME280;9053;53.358;6.382;2023-05-19T09:44:58;102759.88;;;17.21;65.19
17855;BME280;9053;53.358;6.382;2023-05-19T09:47:38;102752.50;;;17.14;65.12
17855;BME280;9053;53.358;6.382;2023-05-19T09:50:10;102762.38;;;17.18;65.58
17855;BME280;9053;53.358;6.382;2023-05-19T09:52:46;102756.78;;;17.11;65.38
17855;BME280;9053;53.358;6.382;2023-05-19T09:55:24;102752.53;;;16.92;65.64
17855;BME280;9053;53.358;6.382;2023-05-19T09:57:55;102761.53;;;16.95;66.00
17855;BME280;9053;53.358;6.382;2023-05-19T10:00:26;102753.91;;;17.04;66.12
17855;BME280;9053;53.358;6.382;2023-05-19T10:03:00;102753.47;;;17.16;66.17
17855;BME280;9053;53.358;6.382;2023-05-19T10:05:32;102748.34;;;16.98;64.59
17855;BME280;9053;53.358;6.382;2023-05-19T10:08:03;102750.97;;;16.97;65.07
17855;BME280;9053;53.358;6.382;2023-05-19T10:10:36;102745.53;;;16.94;65.03
17855;BME280;9053;53.358;6.382;2023-05-19T10:13:07;102751.78;;;16.96;65.19
17855;BME280;9053;53.358;6.382;2023-05-19T10:15:37;102753.03;;;16.81;63.55
17855;BME280;9053;53.358;6.382;2023-05-19T10:18:26;102751.16;;;16.79;63.19
17855;BME280;9053;53.358;6.382;2023-05-19T10:20:56;102742.09;;;16.74;63.53
17855;BME280;9053;53.358;6.382;2023-05-19T10:23:27;102745.25;;;16.86;63.32
17855;BME280;9053;53.358;6.382;2023-05-19T10:25:59;102731.97;;;16.86;62.80
17855;BME280;9053;53.358;6.382;2023-05-19T10:28:34;102751.66;;;16.91;62.98
17855;BME280;9053;53.358;6.382;2023-05-19T10:31:07;102742.38;;;17.04;62.84
17855;BME280;9053;53.358;6.382;2023-05-19T10:33:59;102733.03;;;16.91;62.04
17855;BME280;9053;53.358;6.382;2023-05-19T10:36:41;102735.63;;;16.90;62.74
17855;BME280;9053;53.358;6.382;2023-05-19T10:39:16;102727.75;;;16.93;63.13
17855;BME280;9053;53.358;6.382;2023-05-19T10:41:54;102723.78;;;17.04;63.15
17855;BME280;9053;53.358;6.382;2023-05-19T10:44:41;102731.50;;;16.98;62.94
17855;BME280;9053;53.358;6.382;2023-05-19T10:47:22;102719.19;;;17.00;62.92
17855;BME280;9053;53.358;6.382;2023-05-19T10:49:55;102722.19;;;17.09;63.73
17855;BME280;9053;53.358;6.382;2023-05-19T10:52:26;102728.84;;;17.22;63.99
17855;BME280;9053;53.358;6.382;2023-05-19T10:54:56;102726.75;;;17.13;64.11
17855;BME280;9053;53.358;6.382;2023-05-19T10:57:27;102731.06;;;17.09;65.29
17855;BME280;9053;53.358;6.382;2023-05-19T11:00:02;102720.50;;;17.11;65.74
17855;BME280;9053;53.358;6.382;2023-05-19T11:02:39;102727.16;;;17.24;65.91
17855;BME280;9053;53.358;6.382;2023-05-19T11:05:13;102714.75;;;17.24;66.19
17855;BME280;9053;53.358;6.382;2023-05-19T11:07:54;102718.50;;;17.29;65.55
17855;BME280;9053;53.358;6.382;2023-05-19T11:10:28;102722.91;;;17.29;66.26
17855;BME280;9053;53.358;6.382;2023-05-19T11:12:58;102721.97;;;17.28;66.60
17855;BME280;9053;53.358;6.382;2023-05-19T11:15:28;102727.97;;;17.21;66.27
17855;BME280;9053;53.358;6.382;2023-05-19T11:18:00;102727.41;;;17.06;66.15
17855;BME280;9053;53.358;6.382;2023-05-19T11:20:37;102723.31;;;16.92;66.14
17855;BME280;9053;53.358;6.382;2023-05-19T11:23:08;102726.78;;;16.91;66.31
17855;BME280;9053;53.358;6.382;2023-05-19T11:25:43;102729.94;;;16.80;66.15
17855;BME280;9053;53.358;6.382;2023-05-19T11:28:17;102736.19;;;16.81;66.06
17855;BME280;9053;53.358;6.382;2023-05-19T11:30:53;102711.00;;;16.94;66.37
17855;BME280;9053;53.358;6.382;2023-05-19T11:33:25;102722.91;;;17.05;66.16
17855;BME280;9053;53.358;6.382;2023-05-19T11:35:58;102721.84;;;17.00;65.81
17855;BME280;9053;53.358;6.382;2023-05-19T11:38:28;102713.59;;;17.16;65.96
17855;BME280;9053;53.358;6.382;2023-05-19T11:40:59;102707.06;;;17.32;65.73
17855;BME280;9053;53.358;6.382;2023-05-19T11:43:29;102714.94;;;17.29;65.66
17855;BME280;9053;53.358;6.382;2023-05-19T11:46:00;102717.72;;;17.34;65.82
17855;BME280;9053;53.358;6.382;2023-05-19T11:48:29;102712.59;;;17.38;65.49
17855;BME280;9053;53.358;6.382;2023-05-19T11:51:03;102713.34;;;17.34;65.41
17855;BME280;9053;53.358;6.382;2023-05-19T11:53:35;102709.72;;;17.32;64.81
17855;BME280;9053;53.358;6.382;2023-05-19T11:56:06;102718.66;;;17.34;64.86
17855;BME280;9053;53.358;6.382;2023-05-19T11:58:36;102705.19;;;17.29;65.63
17855;BME280;9053;53.358;6.382;2023-05-19T12:01:06;102711.78;;;17.41;65.20
17855;BME280;9053;53.358;6.382;2023-05-19T12:03:37;102711.50;;;17.33;64.93
17855;BME280;9053;53.358;6.382;2023-05-19T12:06:09;102702.13;;;17.43;65.20
17855;BME280;9053;53.358;6.382;2023-05-19T12:08:46;102695.00;;;17.42;65.98
17855;BME280;9053;53.358;6.382;2023-05-19T12:11:16;102703.78;;;17.39;66.12
17855;BME280;9053;53.358;6.382;2023-05-19T12:13:47;102700.31;;;17.42;65.99
17855;BME280;9053;53.358;6.382;2023-05-19T12:16:20;102705.47;;;17.37;65.76
17855;BME280;9053;53.358;6.382;2023-05-19T12:18:51;102701.16;;;17.41;65.87
17855;BME280;9053;53.358;6.382;2023-05-19T12:21:26;102699.25;;;17.37;67.08
17855;BME280;9053;53.358;6.382;2023-05-19T12:24:00;102705.81;;;17.46;67.77
17855;BME280;9053;53.358;6.382;2023-05-19T12:26:30;102696.06;;;17.47;67.61
17855;BME280;9053;53.358;6.382;2023-05-19T12:29:00;102696.47;;;17.34;67.77
17855;BME280;9053;53.358;6.382;2023-05-19T12:31:31;102694.75;;;17.36;68.31
17855;BME280;9053;53.358;6.382;2023-05-19T12:34:04;102695.00;;;17.42;68.71
17855;BME280;9053;53.358;6.382;2023-05-19T12:36:37;102689.63;;;17.40;69.35
17855;BME280;9053;53.358;6.382;2023-05-19T12:39:07;102684.47;;;17.45;69.54
17855;BME280;9053;53.358;6.382;2023-05-19T12:41:38;102683.16;;;17.34;69.23
17855;BME280;9053;53.358;6.382;2023-05-19T12:44:14;102699.13;;;17.34;70.00
17855;BME280;9053;53.358;6.382;2023-05-19T12:46:44;102683.69;;;17.23;70.61
17855;BME280;9053;53.358;6.382;2023-05-19T12:49:14;102689.25;;;17.29;71.45
17855;BME280;9053;53.358;6.382;2023-05-19T12:51:53;102688.91;;;17.46;71.67
17855;BME280;9053;53.358;6.382;2023-05-19T12:54:32;102685.81;;;17.34;72.11
17855;BME280;9053;53.358;6.382;2023-05-19T12:57:04;102687.31;;;17.25;72.44
17855;BME280;9053;53.358;6.382;2023-05-19T12:59:35;102681.09;;;17.25;73.10
17855;BME280;9053;53.358;6.382;2023-05-19T13:02:05;102678.28;;;17.46;73.20
17855;BME280;9053;53.358;6.382;2023-05-19T13:04:35;102680.31;;;17.53;73.01
17855;BME280;9053;53.358;6.382;2023-05-19T13:07:07;102679.31;;;17.49;73.18
17855;BME280;9053;53.358;6.382;2023-05-19T13:09:37;102680.84;;;17.43;73.04
17855;BME280;9053;53.358;6.382;2023-05-19T13:12:08;102684.13;;;17.36;73.15
17855;BME280;9053;53.358;6.382;2023-05-19T13:14:38;102679.44;;;17.28;73.41
17855;BME280;9053;53.358;6.382;2023-05-19T13:17:08;102674.53;;;17.15;73.33
17855;BME280;9053;53.358;6.382;2023-05-19T13:19:38;102676.22;;;17.13;73.63
17855;BME280;9053;53.358;6.382;2023-05-19T13:22:10;102683.47;;;16.93;74.06
17855;BME280;9053;53.358;6.382;2023-05-19T13:24:40;102668.31;;;16.91;74.47
17855;BME280;9053;53.358;6.382;2023-05-19T13:27:16;102667.13;;;16.82;75.08
17855;BME280;9053;53.358;6.382;2023-05-19T13:29:46;102666.19;;;16.80;75.06
17855;BME280;9053;53.358;6.382;2023-05-19T13:32:23;102672.22;;;16.76;75.65
17855;BME280;9053;53.358;6.382;2023-05-19T13:34:59;102667.03;;;16.79;76.06
17855;BME280;9053;53.358;6.382;2023-05-19T13:37:34;102679.47;;;16.80;76.29
17855;BME280;9053;53.358;6.382;2023-05-19T13:40:10;102674.22;;;16.82;75.98
17855;BME280;9053;53.358;6.382;2023-05-19T13:42:44;102675.38;;;16.89;75.37
17855;BME280;9053;53.358;6.382;2023-05-19T13:45:17;102664.72;;;16.89;75.46
17855;BME280;9053;53.358;6.382;2023-05-19T13:47:51;102664.13;;;16.73;75.76
17855;BME280;9053;53.358;6.382;2023-05-19T13:50:23;102663.38;;;16.77;75.61
17855;BME280;9053;53.358;6.382;2023-05-19T13:52:55;102665.13;;;16.77;76.06
17855;BME280;9053;53.358;6.382;2023-05-19T13:55:27;102665.28;;;16.80;76.14
17855;BME280;9053;53.358;6.382;2023-05-19T13:57:59;102653.94;;;16.84;76.19
17855;BME280;9053;53.358;6.382;2023-05-19T14:00:32;102655.53;;;16.80;76.46
17855;BME280;9053;53.358;6.382;2023-05-19T14:03:04;102663.34;;;16.76;76.25
17855;BME280;9053;53.358;6.382;2023-05-19T14:05:37;102658.03;;;16.76;75.92
17855;BME280;9053;53.358;6.382;2023-05-19T14:08:15;102648.91;;;16.69;75.40
17855;BME280;9053;53.358;6.382;2023-05-19T14:10:45;102655.72;;;16.62;75.67
17855;BME280;9053;53.358;6.382;2023-05-19T14:13:17;102651.22;;;16.60;76.06
17855;BME280;9053;53.358;6.382;2023-05-19T14:16:03;102655.84;;;16.65;76.67
17855;BME280;9053;53.358;6.382;2023-05-19T14:21:18;102658.38;;;16.62;76.47
17855;BME280;9053;53.358;6.382;2023-05-19T14:23:50;102650.91;;;16.52;76.59
17855;BME280;9053;53.358;6.382;2023-05-19T14:26:22;102654.47;;;16.53;77.07
17855;BME280;9053;53.358;6.382;2023-05-19T14:28:55;102648.34;;;16.54;76.85
17855;BME280;9053;53.358;6.382;2023-05-19T14:31:31;102641.47;;;16.60;76.70